sensor_id;sensor_type;location;lat;lon;timestamp;P1;durP1;ratioP1;P2;durP2;ratioP2
67108;SDS011;54027;50.786;7.058;2022-12-07T00:01:25;44.85;;;24.63;;
67108;SDS011;54027;50.786;7.058;2022-12-07T00:03:55;48.78;;;24.52;;
67108;SDS011;54027;50.786;7.058;2022-12-07T00:06:25;50.38;;;23.52;;
67108;SDS011;54027;50.786;7.058;2022-12-07T00:08:51;51.65;;;26.42;;
67108;SDS011;54027;50.786;7.058;2022-12-07T00:11:18;47.22;;;24.55;;
67108;SDS011;54027;50.786;7.058;2022-12-07T00:13:55;55.50;;;26.58;;
67108;SDS011;54027;50.786;7.058;2022-12-07T00:16:23;46.05;;;23.70;;
67108;SDS011;54027;50.786;7.058;2022-12-07T00:18:50;46.08;;;25.17;;
67108;SDS011;54027;50.786;7.058;2022-12-07T00:21:20;43.42;;;23.98;;
67108;SDS011;54027;50.786;7.058;2022-12-07T00:23:49;43.00;;;23.42;;
67108;SDS011;54027;50.786;7.058;2022-12-07T00:26:16;48.15;;;25.40;;
67108;SDS011;54027;50.786;7.058;2022-12-07T00:28:45;45.53;;;25.77;;
67108;SDS011;54027;50.786;7.058;2022-12-07T00:31:12;40.65;;;23.10;;
67108;SDS011;54027;50.786;7.058;2022-12-07T00:33:38;45.63;;;26.80;;
67108;SDS011;54027;50.786;7.058;2022-12-07T00:36:08;44.20;;;24.52;;
67108;SDS011;54027;50.786;7.058;2022-12-07T00:38:35;43.97;;;25.85;;
67108;SDS011;54027;50.786;7.058;2022-12-07T00:41:03;46.35;;;24.05;;
67108;SDS011;54027;50.786;7.058;2022-12-07T00:43:31;42.17;;;24.98;;
67108;SDS011;54027;50.786;7.058;2022-12-07T00:45:57;43.25;;;24.98;;
67108;SDS011;54027;50.786;7.058;2022-12-07T00:48:23;47.47;;;24.60;;
67108;SDS011;54027;50.786;7.058;2022-12-07T00:50:49;47.08;;;25.98;;
67108;SDS011;54027;50.786;7.058;2022-12-07T00:53:15;45.42;;;25.48;;
67108;SDS011;54027;50.786;7.058;2022-12-07T00:55:40;43.72;;;25.98;;
67108;SDS011;54027;50.786;7.058;2022-12-07T00:58:06;46.55;;;25.55;;
67108;SDS011;54027;50.786;7.058;2022-12-07T01:00:32;44.50;;;24.83;;
67108;SDS011;54027;50.786;7.058;2022-12-07T01:02:58;48.45;;;25.73;;
67108;SDS011;54027;50.786;7.058;2022-12-07T01:05:23;45.72;;;27.38;;
67108;SDS011;54027;50.786;7.058;2022-12-07T01:07:49;44.42;;;26.02;;
67108;SDS011;54027;50.786;7.058;2022-12-07T01:10:14;45.97;;;27.02;;
67108;SDS011;54027;50.786;7.058;2022-12-07T01:12:40;41.90;;;24.88;;
67108;SDS011;54027;50.786;7.058;2022-12-07T01:15:06;42.15;;;24.95;;
67108;SDS011;54027;50.786;7.058;2022-12-07T01:17:32;46.53;;;25.83;;
67108;SDS011;54027;50.786;7.058;2022-12-07T01:19:57;53.53;;;26.42;;
67108;SDS011;54027;50.786;7.058;2022-12-07T01:22:23;45.58;;;25.50;;
67108;SDS011;54027;50.786;7.058;2022-12-07T01:24:48;47.35;;;25.73;;
67108;SDS011;54027;50.786;7.058;2022-12-07T01:27:14;46.13;;;26.65;;
67108;SDS011;54027;50.786;7.058;2022-12-07T01:29:39;42.22;;;26.38;;
67108;SDS011;54027;50.786;7.058;2022-12-07T01:32:05;46.42;;;26.42;;
67108;SDS011;54027;50.786;7.058;2022-12-07T01:34:30;46.25;;;26.00;;
67108;SDS011;54027;50.786;7.058;2022-12-07T01:36:56;42.83;;;26.00;;
67108;SDS011;54027;50.786;7.058;2022-12-07T01:39:22;45.38;;;26.17;;
67108;SDS011;54027;50.786;7.058;2022-12-07T01:41:48;44.03;;;25.45;;
67108;SDS011;54027;50.786;7.058;2022-12-07T01:44:21;42.92;;;24.38;;
67108;SDS011;54027;50.786;7.058;2022-12-07T01:46:51;43.88;;;25.65;;
67108;SDS011;54027;50.786;7.058;2022-12-07T01:52:14;45.72;;;26.23;;
67108;SDS011;54027;50.786;7.058;2022-12-07T01:54:44;47.58;;;25.50;;
67108;SDS011;54027;50.786;7.058;2022-12-07T01:57:13;41.30;;;24.80;;
67108;SDS011;54027;50.786;7.058;2022-12-07T01:59:41;43.15;;;25.40;;
67108;SDS011;54027;50.786;7.058;2022-12-07T02:02:14;43.67;;;24.63;;
67108;SDS011;54027;50.786;7.058;2022-12-07T02:04:44;41.58;;;25.55;;
67108;SDS011;54027;50.786;7.058;2022-12-07T02:07:10;46.47;;;25.60;;
67108;SDS011;54027;50.786;7.058;2022-12-07T02:09:36;43.63;;;25.40;;
67108;SDS011;54027;50.786;7.058;2022-12-07T02:12:02;48.15;;;26.88;;
67108;SDS011;54027;50.786;7.058;2022-12-07T02:14:28;44.03;;;25.38;;
67108;SDS011;54027;50.786;7.058;2022-12-07T02:17:03;46.05;;;26.05;;
67108;SDS011;54027;50.786;7.058;2022-12-07T02:19:49;47.97;;;26.10;;
67108;SDS011;54027;50.786;7.058;2022-12-07T02:22:54;43.30;;;25.55;;
67108;SDS011;54027;50.786;7.058;2022-12-07T02:28:33;45.80;;;26.33;;
67108;SDS011;54027;50.786;7.058;2022-12-07T02:31:03;47.42;;;25.40;;
67108;SDS011;54027;50.786;7.058;2022-12-07T02:33:42;46.30;;;28.35;;
67108;SDS011;54027;50.786;7.058;2022-12-07T02:36:18;48.17;;;26.73;;
67108;SDS011;54027;50.786;7.058;2022-12-07T02:38:53;47.53;;;25.63;;
67108;SDS011;54027;50.786;7.058;2022-12-07T02:41:30;46.45;;;26.90;;
67108;SDS011;54027;50.786;7.058;2022-12-07T02:44:10;45.55;;;26.67;;
67108;SDS011;54027;50.786;7.058;2022-12-07T02:46:43;53.53;;;29.75;;
67108;SDS011;54027;50.786;7.058;2022-12-07T02:49:12;47.33;;;27.73;;
67108;SDS011;54027;50.786;7.058;2022-12-07T02:51:41;52.17;;;27.77;;
67108;SDS011;54027;50.786;7.058;2022-12-07T02:54:10;45.85;;;27.23;;
67108;SDS011;54027;50.786;7.058;2022-12-07T03:02:50;44.88;;;26.65;;
67108;SDS011;54027;50.786;7.058;2022-12-07T03:05:36;50.67;;;27.15;;
67108;SDS011;54027;50.786;7.058;2022-12-07T03:08:36;44.10;;;26.63;;
67108;SDS011;54027;50.786;7.058;2022-12-07T03:11:09;47.72;;;25.85;;
67108;SDS011;54027;50.786;7.058;2022-12-07T03:16:29;49.85;;;27.20;;
67108;SDS011;54027;50.786;7.058;2022-12-07T03:19:07;48.63;;;27.63;;
67108;SDS011;54027;50.786;7.058;2022-12-07T03:21:42;42.55;;;25.90;;
67108;SDS011;54027;50.786;7.058;2022-12-07T03:24:14;47.00;;;27.73;;
67108;SDS011;54027;50.786;7.058;2022-12-07T03:26:46;50.13;;;25.75;;
67108;SDS011;54027;50.786;7.058;2022-12-07T03:29:28;38.83;;;23.67;;
67108;SDS011;54027;50.786;7.058;2022-12-07T03:32:04;45.10;;;25.23;;
67108;SDS011;54027;50.786;7.058;2022-12-07T03:37:53;42.50;;;25.33;;
67108;SDS011;54027;50.786;7.058;2022-12-07T03:40:33;45.85;;;24.15;;
67108;SDS011;54027;50.786;7.058;2022-12-07T03:43:00;42.63;;;25.30;;
67108;SDS011;54027;50.786;7.058;2022-12-07T03:45:38;40.35;;;24.05;;
67108;SDS011;54027;50.786;7.058;2022-12-07T03:48:25;45.50;;;25.30;;
67108;SDS011;54027;50.786;7.058;2022-12-07T03:51:00;45.25;;;25.25;;
67108;SDS011;54027;50.786;7.058;2022-12-07T03:56:13;44.92;;;24.60;;
67108;SDS011;54027;50.786;7.058;2022-12-07T03:58:39;46.22;;;24.70;;
67108;SDS011;54027;50.786;7.058;2022-12-07T04:01:06;47.70;;;25.38;;
67108;SDS011;54027;50.786;7.058;2022-12-07T04:03:31;40.25;;;24.33;;
67108;SDS011;54027;50.786;7.058;2022-12-07T04:05:57;40.33;;;23.38;;
67108;SDS011;54027;50.786;7.058;2022-12-07T04:08:23;45.58;;;25.45;;
67108;SDS011;54027;50.786;7.058;2022-12-07T04:10:49;41.20;;;23.85;;
67108;SDS011;54027;50.786;7.058;2022-12-07T04:13:15;43.60;;;23.92;;
67108;SDS011;54027;50.786;7.058;2022-12-07T04:15:40;50.80;;;25.73;;
67108;SDS011;54027;50.786;7.058;2022-12-07T04:18:05;44.75;;;25.98;;
67108;SDS011;54027;50.786;7.058;2022-12-07T04:20:31;40.55;;;24.83;;
67108;SDS011;54027;50.786;7.058;2022-12-07T04:22:56;39.38;;;23.38;;
67108;SDS011;54027;50.786;7.058;2022-12-07T04:25:22;45.92;;;24.83;;
67108;SDS011;54027;50.786;7.058;2022-12-07T04:27:47;43.17;;;24.67;;
67108;SDS011;54027;50.786;7.058;2022-12-07T04:30:12;44.47;;;24.48;;
67108;SDS011;54027;50.786;7.058;2022-12-07T04:32:38;43.85;;;26.10;;
67108;SDS011;54027;50.786;7.058;2022-12-07T04:35:06;44.85;;;26.23;;
67108;SDS011;54027;50.786;7.058;2022-12-07T04:37:32;48.50;;;26.88;;
67108;SDS011;54027;50.786;7.058;2022-12-07T04:39:57;45.08;;;26.33;;
67108;SDS011;54027;50.786;7.058;2022-12-07T04:42:24;46.67;;;25.13;;
67108;SDS011;54027;50.786;7.058;2022-12-07T04:44:49;40.53;;;23.35;;
67108;SDS011;54027;50.786;7.058;2022-12-07T04:47:15;45.22;;;25.73;;
67108;SDS011;54027;50.786;7.058;2022-12-07T04:49:41;42.70;;;25.58;;
67108;SDS011;54027;50.786;7.058;2022-12-07T04:52:06;46.78;;;25.83;;
67108;SDS011;54027;50.786;7.058;2022-12-07T04:54:32;44.70;;;25.10;;
67108;SDS011;54027;50.786;7.058;2022-12-07T04:56:57;42.47;;;25.30;;
67108;SDS011;54027;50.786;7.058;2022-12-07T04:59:22;48.17;;;26.42;;
67108;SDS011;54027;50.786;7.058;2022-12-07T05:01:51;44.65;;;25.58;;
67108;SDS011;54027;50.786;7.058;2022-12-07T05:04:16;45.42;;;25.92;;
67108;SDS011;54027;50.786;7.058;2022-12-07T05:06:43;45.08;;;24.17;;
67108;SDS011;54027;50.786;7.058;2022-12-07T05:09:09;40.88;;;23.67;;
67108;SDS011;54027;50.786;7.058;2022-12-07T05:11:34;46.70;;;25.25;;
67108;SDS011;54027;50.786;7.058;2022-12-07T05:14:08;44.20;;;24.77;;
67108;SDS011;54027;50.786;7.058;2022-12-07T05:16:35;45.00;;;24.38;;
67108;SDS011;54027;50.786;7.058;2022-12-07T05:19:01;47.55;;;24.85;;
67108;SDS011;54027;50.786;7.058;2022-12-07T05:21:26;55.22;;;25.95;;
67108;SDS011;54027;50.786;7.058;2022-12-07T05:23:52;42.67;;;23.23;;
67108;SDS011;54027;50.786;7.058;2022-12-07T05:26:17;45.47;;;25.17;;
67108;SDS011;54027;50.786;7.058;2022-12-07T05:28:43;44.15;;;23.60;;
67108;SDS011;54027;50.786;7.058;2022-12-07T05:31:08;46.97;;;26.60;;
67108;SDS011;54027;50.786;7.058;2022-12-07T05:33:34;45.58;;;25.80;;
67108;SDS011;54027;50.786;7.058;2022-12-07T05:35:59;41.85;;;23.52;;
67108;SDS011;54027;50.786;7.058;2022-12-07T05:38:30;43.78;;;23.38;;
67108;SDS011;54027;50.786;7.058;2022-12-07T05:41:00;42.40;;;22.50;;
67108;SDS011;54027;50.786;7.058;2022-12-07T05:43:26;40.08;;;21.20;;
67108;SDS011;54027;50.786;7.058;2022-12-07T05:45:52;42.92;;;23.25;;
67108;SDS011;54027;50.786;7.058;2022-12-07T05:48:17;41.53;;;23.42;;
67108;SDS011;54027;50.786;7.058;2022-12-07T05:50:42;45.45;;;23.70;;
67108;SDS011;54027;50.786;7.058;2022-12-07T05:53:08;48.83;;;24.17;;
67108;SDS011;54027;50.786;7.058;2022-12-07T05:55:33;43.33;;;23.13;;
67108;SDS011;54027;50.786;7.058;2022-12-07T05:57:58;41.92;;;23.17;;
67108;SDS011;54027;50.786;7.058;2022-12-07T06:00:42;41.00;;;22.48;;
67108;SDS011;54027;50.786;7.058;2022-12-07T06:03:08;46.15;;;22.45;;
67108;SDS011;54027;50.786;7.058;2022-12-07T06:05:33;43.85;;;22.92;;
67108;SDS011;54027;50.786;7.058;2022-12-07T06:07:59;41.50;;;24.20;;
67108;SDS011;54027;50.786;7.058;2022-12-07T06:10:24;46.15;;;24.95;;
67108;SDS011;54027;50.786;7.058;2022-12-07T06:12:49;41.40;;;22.95;;
67108;SDS011;54027;50.786;7.058;2022-12-07T06:15:15;41.90;;;23.30;;
67108;SDS011;54027;50.786;7.058;2022-12-07T06:17:40;44.88;;;23.67;;
67108;SDS011;54027;50.786;7.058;2022-12-07T06:20:06;44.47;;;24.48;;
67108;SDS011;54027;50.786;7.058;2022-12-07T06:22:31;42.60;;;23.38;;
67108;SDS011;54027;50.786;7.058;2022-12-07T06:24:57;45.40;;;22.63;;
67108;SDS011;54027;50.786;7.058;2022-12-07T06:27:22;44.33;;;22.63;;
67108;SDS011;54027;50.786;7.058;2022-12-07T06:29:48;39.22;;;23.02;;
67108;SDS011;54027;50.786;7.058;2022-12-07T06:32:13;44.30;;;25.67;;
67108;SDS011;54027;50.786;7.058;2022-12-07T06:34:38;49.92;;;24.40;;
67108;SDS011;54027;50.786;7.058;2022-12-07T06:37:04;43.45;;;22.98;;
67108;SDS011;54027;50.786;7.058;2022-12-07T06:39:29;49.75;;;24.02;;
67108;SDS011;54027;50.786;7.058;2022-12-07T06:41:56;41.45;;;22.73;;
67108;SDS011;54027;50.786;7.058;2022-12-07T06:44:22;50.40;;;24.85;;
67108;SDS011;54027;50.786;7.058;2022-12-07T06:46:48;42.60;;;23.92;;
67108;SDS011;54027;50.786;7.058;2022-12-07T06:49:14;42.72;;;24.20;;
67108;SDS011;54027;50.786;7.058;2022-12-07T06:51:40;41.58;;;23.05;;
67108;SDS011;54027;50.786;7.058;2022-12-07T06:54:08;41.67;;;23.13;;
67108;SDS011;54027;50.786;7.058;2022-12-07T06:56:38;47.13;;;23.73;;
67108;SDS011;54027;50.786;7.058;2022-12-07T06:59:04;44.75;;;23.85;;
67108;SDS011;54027;50.786;7.058;2022-12-07T07:01:31;44.72;;;22.15;;
67108;SDS011;54027;50.786;7.058;2022-12-07T07:03:57;42.47;;;21.95;;
67108;SDS011;54027;50.786;7.058;2022-12-07T07:06:22;40.20;;;22.92;;
67108;SDS011;54027;50.786;7.058;2022-12-07T07:08:48;39.75;;;21.30;;
67108;SDS011;54027;50.786;7.058;2022-12-07T07:11:13;41.47;;;22.05;;
67108;SDS011;54027;50.786;7.058;2022-12-07T07:13:39;39.85;;;21.58;;
67108;SDS011;54027;50.786;7.058;2022-12-07T07:16:05;43.33;;;20.48;;
67108;SDS011;54027;50.786;7.058;2022-12-07T07:18:31;43.25;;;19.95;;
67108;SDS011;54027;50.786;7.058;2022-12-07T07:20:56;33.28;;;18.52;;
67108;SDS011;54027;50.786;7.058;2022-12-07T07:23:22;40.72;;;19.30;;
67108;SDS011;54027;50.786;7.058;2022-12-07T07:25:47;37.22;;;19.52;;
67108;SDS011;54027;50.786;7.058;2022-12-07T07:28:14;34.65;;;17.45;;
67108;SDS011;54027;50.786;7.058;2022-12-07T07:30:40;30.83;;;18.50;;
67108;SDS011;54027;50.786;7.058;2022-12-07T07:33:05;32.78;;;17.33;;
67108;SDS011;54027;50.786;7.058;2022-12-07T07:35:32;32.60;;;19.33;;
67108;SDS011;54027;50.786;7.058;2022-12-07T07:37:58;34.97;;;18.17;;
67108;SDS011;54027;50.786;7.058;2022-12-07T07:40:24;33.95;;;18.52;;
67108;SDS011;54027;50.786;7.058;2022-12-07T07:42:51;32.67;;;18.30;;
67108;SDS011;54027;50.786;7.058;2022-12-07T07:45:18;34.47;;;18.80;;
67108;SDS011;54027;50.786;7.058;2022-12-07T07:47:45;38.70;;;19.30;;
67108;SDS011;54027;50.786;7.058;2022-12-07T07:50:10;35.70;;;19.88;;
67108;SDS011;54027;50.786;7.058;2022-12-07T07:52:36;37.25;;;20.20;;
67108;SDS011;54027;50.786;7.058;2022-12-07T07:55:02;38.15;;;21.10;;
67108;SDS011;54027;50.786;7.058;2022-12-07T07:57:28;34.70;;;19.52;;
67108;SDS011;54027;50.786;7.058;2022-12-07T07:59:53;38.95;;;20.05;;
67108;SDS011;54027;50.786;7.058;2022-12-07T08:02:19;38.72;;;19.60;;
67108;SDS011;54027;50.786;7.058;2022-12-07T08:04:45;41.47;;;22.25;;
67108;SDS011;54027;50.786;7.058;2022-12-07T08:07:11;42.00;;;19.50;;
67108;SDS011;54027;50.786;7.058;2022-12-07T08:09:37;40.47;;;22.38;;
67108;SDS011;54027;50.786;7.058;2022-12-07T08:12:08;46.60;;;22.10;;
67108;SDS011;54027;50.786;7.058;2022-12-07T08:14:34;46.70;;;22.00;;
67108;SDS011;54027;50.786;7.058;2022-12-07T08:16:59;40.72;;;20.90;;
67108;SDS011;54027;50.786;7.058;2022-12-07T08:19:25;38.88;;;20.67;;
67108;SDS011;54027;50.786;7.058;2022-12-07T08:21:51;37.60;;;21.02;;
67108;SDS011;54027;50.786;7.058;2022-12-07T08:24:16;44.13;;;21.88;;
67108;SDS011;54027;50.786;7.058;2022-12-07T08:26:42;46.70;;;22.42;;
67108;SDS011;54027;50.786;7.058;2022-12-07T08:29:08;40.28;;;21.75;;
67108;SDS011;54027;50.786;7.058;2022-12-07T08:31:35;36.33;;;21.02;;
67108;SDS011;54027;50.786;7.058;2022-12-07T08:34:01;43.17;;;21.45;;
67108;SDS011;54027;50.786;7.058;2022-12-07T08:36:26;39.33;;;20.45;;
67108;SDS011;54027;50.786;7.058;2022-12-07T08:38:52;39.00;;;21.13;;
67108;SDS011;54027;50.786;7.058;2022-12-07T08:41:18;40.17;;;20.90;;
67108;SDS011;54027;50.786;7.058;2022-12-07T08:43:43;37.00;;;19.90;;
67108;SDS011;54027;50.786;7.058;2022-12-07T08:48:46;42.38;;;20.83;;
67108;SDS011;54027;50.786;7.058;2022-12-07T08:51:14;36.53;;;19.15;;
67108;SDS011;54027;50.786;7.058;2022-12-07T08:53:39;32.53;;;18.38;;
67108;SDS011;54027;50.786;7.058;2022-12-07T08:56:07;31.95;;;19.13;;
67108;SDS011;54027;50.786;7.058;2022-12-07T08:58:34;35.72;;;18.60;;
67108;SDS011;54027;50.786;7.058;2022-12-07T09:01:00;32.22;;;17.65;;
67108;SDS011;54027;50.786;7.058;2022-12-07T09:03:26;33.00;;;17.83;;
67108;SDS011;54027;50.786;7.058;2022-12-07T09:05:52;32.63;;;17.52;;
67108;SDS011;54027;50.786;7.058;2022-12-07T09:08:18;36.25;;;16.35;;
67108;SDS011;54027;50.786;7.058;2022-12-07T09:10:44;30.48;;;16.65;;
67108;SDS011;54027;50.786;7.058;2022-12-07T09:13:10;28.65;;;17.13;;
67108;SDS011;54027;50.786;7.058;2022-12-07T09:15:36;33.30;;;17.02;;
67108;SDS011;54027;50.786;7.058;2022-12-07T09:18:01;34.20;;;16.70;;
67108;SDS011;54027;50.786;7.058;2022-12-07T09:20:26;34.00;;;17.98;;
67108;SDS011;54027;50.786;7.058;2022-12-07T09:22:52;33.38;;;17.38;;
67108;SDS011;54027;50.786;7.058;2022-12-07T09:25:17;33.10;;;17.55;;
67108;SDS011;54027;50.786;7.058;2022-12-07T09:27:43;32.72;;;17.08;;
67108;SDS011;54027;50.786;7.058;2022-12-07T09:30:08;32.85;;;17.50;;
67108;SDS011;54027;50.786;7.058;2022-12-07T09:32:34;29.55;;;15.68;;
67108;SDS011;54027;50.786;7.058;2022-12-07T09:34:59;38.83;;;16.77;;
67108;SDS011;54027;50.786;7.058;2022-12-07T09:37:25;31.48;;;16.38;;
67108;SDS011;54027;50.786;7.058;2022-12-07T09:39:51;37.83;;;19.27;;
67108;SDS011;54027;50.786;7.058;2022-12-07T09:42:33;38.25;;;17.30;;
67108;SDS011;54027;50.786;7.058;2022-12-07T09:45:01;33.40;;;17.13;;
67108;SDS011;54027;50.786;7.058;2022-12-07T09:47:29;30.88;;;16.95;;
67108;SDS011;54027;50.786;7.058;2022-12-07T09:49:58;35.40;;;18.70;;
67108;SDS011;54027;50.786;7.058;2022-12-07T09:52:29;30.85;;;16.35;;
67108;SDS011;54027;50.786;7.058;2022-12-07T09:54:55;25.52;;;16.55;;
67108;SDS011;54027;50.786;7.058;2022-12-07T09:57:24;30.00;;;16.83;;
67108;SDS011;54027;50.786;7.058;2022-12-07T09:59:57;30.75;;;16.10;;
67108;SDS011;54027;50.786;7.058;2022-12-07T10:02:32;27.27;;;15.35;;
67108;SDS011;54027;50.786;7.058;2022-12-07T10:04:59;30.25;;;15.45;;
67108;SDS011;54027;50.786;7.058;2022-12-07T10:07:25;30.83;;;16.77;;
67108;SDS011;54027;50.786;7.058;2022-12-07T10:09:50;28.13;;;14.98;;
67108;SDS011;54027;50.786;7.058;2022-12-07T10:12:16;26.92;;;14.15;;
67108;SDS011;54027;50.786;7.058;2022-12-07T10:15:00;30.35;;;15.23;;
67108;SDS011;54027;50.786;7.058;2022-12-07T10:20:12;27.52;;;14.48;;
67108;SDS011;54027;50.786;7.058;2022-12-07T10:22:53;33.15;;;14.57;;
67108;SDS011;54027;50.786;7.058;2022-12-07T10:25:20;26.65;;;13.50;;
67108;SDS011;54027;50.786;7.058;2022-12-07T10:30:25;28.30;;;14.80;;
67108;SDS011;54027;50.786;7.058;2022-12-07T10:32:51;29.98;;;14.70;;
67108;SDS011;54027;50.786;7.058;2022-12-07T10:37:56;25.50;;;14.65;;
67108;SDS011;54027;50.786;7.058;2022-12-07T10:40:33;27.27;;;15.68;;
67108;SDS011;54027;50.786;7.058;2022-12-07T10:43:01;24.83;;;13.82;;
67108;SDS011;54027;50.786;7.058;2022-12-07T10:45:27;31.38;;;14.52;;
67108;SDS011;54027;50.786;7.058;2022-12-07T11:00:26;19.52;;;11.40;;
67108;SDS011;54027;50.786;7.058;2022-12-07T11:03:09;18.58;;;10.73;;
67108;SDS011;54027;50.786;7.058;2022-12-07T11:13:25;18.08;;;9.88;;
67108;SDS011;54027;50.786;7.058;2022-12-07T11:16:00;19.17;;;9.77;;
67108;SDS011;54027;50.786;7.058;2022-12-07T11:18:36;18.17;;;9.63;;
67108;SDS011;54027;50.786;7.058;2022-12-07T11:24:02;16.50;;;8.18;;
67108;SDS011;54027;50.786;7.058;2022-12-07T11:37:05;19.08;;;7.97;;
67108;SDS011;54027;50.786;7.058;2022-12-07T11:39:39;17.83;;;7.53;;
67108;SDS011;54027;50.786;7.058;2022-12-07T11:42:18;13.60;;;7.40;;
67108;SDS011;54027;50.786;7.058;2022-12-07T11:44:58;16.02;;;7.30;;
67108;SDS011;54027;50.786;7.058;2022-12-07T11:55:29;18.67;;;6.32;;
67108;SDS011;54027;50.786;7.058;2022-12-07T11:58:12;11.63;;;6.72;;
67108;SDS011;54027;50.786;7.058;2022-12-07T12:00:40;13.40;;;5.57;;
67108;SDS011;54027;50.786;7.058;2022-12-07T12:03:11;15.88;;;7.75;;
67108;SDS011;54027;50.786;7.058;2022-12-07T12:05:55;16.63;;;5.90;;
67108;SDS011;54027;50.786;7.058;2022-12-07T12:08:26;13.23;;;5.82;;
67108;SDS011;54027;50.786;7.058;2022-12-07T12:14:03;10.98;;;5.43;;
67108;SDS011;54027;50.786;7.058;2022-12-07T12:19:41;13.23;;;6.38;;
67108;SDS011;54027;50.786;7.058;2022-12-07T12:22:20;12.43;;;6.55;;
67108;SDS011;54027;50.786;7.058;2022-12-07T12:24:58;13.75;;;6.57;;
67108;SDS011;54027;50.786;7.058;2022-12-07T12:27:33;18.15;;;8.38;;
67108;SDS011;54027;50.786;7.058;2022-12-07T12:30:03;13.05;;;7.07;;
67108;SDS011;54027;50.786;7.058;2022-12-07T12:32:44;13.18;;;6.15;;
67108;SDS011;54027;50.786;7.058;2022-12-07T12:42:52;16.20;;;7.28;;
67108;SDS011;54027;50.786;7.058;2022-12-07T12:47:55;18.10;;;7.47;;
67108;SDS011;54027;50.786;7.058;2022-12-07T12:50:26;13.43;;;6.47;;
67108;SDS011;54027;50.786;7.058;2022-12-07T12:52:57;15.93;;;6.80;;
67108;SDS011;54027;50.786;7.058;2022-12-07T12:55:46;16.15;;;7.07;;
67108;SDS011;54027;50.786;7.058;2022-12-07T12:58:30;14.93;;;6.80;;
67108;SDS011;54027;50.786;7.058;2022-12-07T13:03:57;12.15;;;6.72;;
67108;SDS011;54027;50.786;7.058;2022-12-07T13:08:54;17.60;;;7.10;;
67108;SDS011;54027;50.786;7.058;2022-12-07T13:11:32;14.40;;;7.15;;
67108;SDS011;54027;50.786;7.058;2022-12-07T13:17:00;13.63;;;7.10;;
67108;SDS011;54027;50.786;7.058;2022-12-07T13:20:20;14.95;;;7.90;;
67108;SDS011;54027;50.786;7.058;2022-12-07T13:25:18;20.73;;;10.48;;
67108;SDS011;54027;50.786;7.058;2022-12-07T13:27:51;15.65;;;8.50;;
67108;SDS011;54027;50.786;7.058;2022-12-07T13:30:26;19.33;;;8.65;;
67108;SDS011;54027;50.786;7.058;2022-12-07T13:32:54;16.60;;;7.60;;
67108;SDS011;54027;50.786;7.058;2022-12-07T13:37:53;20.73;;;9.88;;
67108;SDS011;54027;50.786;7.058;2022-12-07T13:40:20;21.75;;;9.75;;
67108;SDS011;54027;50.786;7.058;2022-12-07T13:42:47;22.55;;;10.00;;
67108;SDS011;54027;50.786;7.058;2022-12-07T13:45:25;21.00;;;9.02;;
67108;SDS011;54027;50.786;7.058;2022-12-07T13:48:32;15.60;;;9.18;;
67108;SDS011;54027;50.786;7.058;2022-12-07T13:51:02;17.08;;;8.30;;
67108;SDS011;54027;50.786;7.058;2022-12-07T13:53:29;18.67;;;9.55;;
67108;SDS011;54027;50.786;7.058;2022-12-07T13:55:58;17.70;;;9.43;;
67108;SDS011;54027;50.786;7.058;2022-12-07T13:58:25;14.70;;;8.27;;
67108;SDS011;54027;50.786;7.058;2022-12-07T14:00:54;17.98;;;8.30;;
67108;SDS011;54027;50.786;7.058;2022-12-07T14:06:05;18.17;;;8.63;;
67108;SDS011;54027;50.786;7.058;2022-12-07T14:08:31;21.50;;;9.95;;
67108;SDS011;54027;50.786;7.058;2022-12-07T14:10:57;11.52;;;6.55;;
67108;SDS011;54027;50.786;7.058;2022-12-07T14:13:40;13.90;;;6.78;;
67108;SDS011;54027;50.786;7.058;2022-12-07T14:16:21;19.80;;;7.80;;
67108;SDS011;54027;50.786;7.058;2022-12-07T14:18:56;15.75;;;5.78;;
67108;SDS011;54027;50.786;7.058;2022-12-07T14:21:25;10.93;;;5.38;;
67108;SDS011;54027;50.786;7.058;2022-12-07T14:26:50;22.25;;;9.85;;
67108;SDS011;54027;50.786;7.058;2022-12-07T14:29:33;38.88;;;16.10;;
67108;SDS011;54027;50.786;7.058;2022-12-07T14:32:36;13.73;;;5.97;;
67108;SDS011;54027;50.786;7.058;2022-12-07T14:34:56;58.42;;;22.73;;
67108;SDS011;54027;50.786;7.058;2022-12-07T14:37:25;19.35;;;8.63;;
67108;SDS011;54027;50.786;7.058;2022-12-07T14:39:52;14.43;;;6.70;;
67108;SDS011;54027;50.786;7.058;2022-12-07T14:42:17;14.70;;;7.45;;
67108;SDS011;54027;50.786;7.058;2022-12-07T14:44:43;16.60;;;6.57;;
67108;SDS011;54027;50.786;7.058;2022-12-07T14:47:09;12.60;;;5.40;;
67108;SDS011;54027;50.786;7.058;2022-12-07T14:49:35;9.40;;;6.07;;
67108;SDS011;54027;50.786;7.058;2022-12-07T14:52:00;17.85;;;8.57;;
67108;SDS011;54027;50.786;7.058;2022-12-07T14:54:26;11.65;;;7.03;;
67108;SDS011;54027;50.786;7.058;2022-12-07T14:56:55;17.40;;;6.65;;
67108;SDS011;54027;50.786;7.058;2022-12-07T14:59:20;17.48;;;7.60;;
67108;SDS011;54027;50.786;7.058;2022-12-07T15:01:46;18.58;;;7.47;;
67108;SDS011;54027;50.786;7.058;2022-12-07T15:04:11;17.52;;;10.48;;
67108;SDS011;54027;50.786;7.058;2022-12-07T15:06:37;23.13;;;12.18;;
67108;SDS011;54027;50.786;7.058;2022-12-07T15:09:03;16.80;;;8.32;;
67108;SDS011;54027;50.786;7.058;2022-12-07T15:11:29;21.10;;;8.77;;
67108;SDS011;54027;50.786;7.058;2022-12-07T15:13:55;19.92;;;7.43;;
67108;SDS011;54027;50.786;7.058;2022-12-07T15:16:40;18.52;;;7.57;;
67108;SDS011;54027;50.786;7.058;2022-12-07T15:19:14;18.15;;;8.23;;
67108;SDS011;54027;50.786;7.058;2022-12-07T15:21:42;20.30;;;10.55;;
67108;SDS011;54027;50.786;7.058;2022-12-07T15:24:09;26.50;;;12.43;;
67108;SDS011;54027;50.786;7.058;2022-12-07T15:26:38;23.80;;;13.30;;
67108;SDS011;54027;50.786;7.058;2022-12-07T15:29:04;21.20;;;11.02;;
67108;SDS011;54027;50.786;7.058;2022-12-07T15:31:31;26.60;;;13.85;;
67108;SDS011;54027;50.786;7.058;2022-12-07T15:33:57;24.02;;;10.35;;
67108;SDS011;54027;50.786;7.058;2022-12-07T15:36:23;19.08;;;10.88;;
67108;SDS011;54027;50.786;7.058;2022-12-07T15:38:50;18.45;;;8.38;;
67108;SDS011;54027;50.786;7.058;2022-12-07T15:41:16;14.95;;;8.00;;
67108;SDS011;54027;50.786;7.058;2022-12-07T15:43:42;18.05;;;8.55;;
67108;SDS011;54027;50.786;7.058;2022-12-07T15:46:29;13.85;;;7.63;;
67108;SDS011;54027;50.786;7.058;2022-12-07T15:48:58;19.60;;;10.02;;
67108;SDS011;54027;50.786;7.058;2022-12-07T15:51:24;21.63;;;10.23;;
67108;SDS011;54027;50.786;7.058;2022-12-07T15:53:49;20.35;;;12.57;;
67108;SDS011;54027;50.786;7.058;2022-12-07T15:56:15;20.40;;;11.13;;
67108;SDS011;54027;50.786;7.058;2022-12-07T15:58:40;19.90;;;9.27;;
67108;SDS011;54027;50.786;7.058;2022-12-07T16:03:41;25.40;;;16.77;;
67108;SDS011;54027;50.786;7.058;2022-12-07T16:06:10;24.88;;;16.98;;
67108;SDS011;54027;50.786;7.058;2022-12-07T16:08:37;18.77;;;9.63;;
67108;SDS011;54027;50.786;7.058;2022-12-07T16:11:08;15.27;;;9.43;;
67108;SDS011;54027;50.786;7.058;2022-12-07T16:13:33;21.65;;;10.38;;
67108;SDS011;54027;50.786;7.058;2022-12-07T16:16:10;20.73;;;11.25;;
67108;SDS011;54027;50.786;7.058;2022-12-07T16:18:37;27.08;;;13.60;;
67108;SDS011;54027;50.786;7.058;2022-12-07T16:21:03;19.02;;;10.80;;
67108;SDS011;54027;50.786;7.058;2022-12-07T16:23:29;17.02;;;8.85;;
67108;SDS011;54027;50.786;7.058;2022-12-07T16:26:03;15.85;;;8.82;;